Time;durP1;ratioP1;P1;durP2;ratioP2;P2;SDS_P1;SDS_P2;PMS_P1;PMS_P2;Temp;Humidity;BMP_temperature;BMP_pressure;BME280_temperature;BME280_humidity;BME280_pressure;Samples;Min_cycle;Max_cycle;Signal;HPM_P1;HPM_P2
2021/10/04 00:01:06;;;;;;;;;;;16.50;99.90;;;;;;2089142;28;651;-51
2021/10/04 00:02:25;;;;;;;;;;;16.50;99.90;;;;;;2088670;28;655;-51
2021/10/04 00:03:44;;;;;;;;;;;16.50;99.90;;;;;;2084963;28;621;-50
2021/10/04 00:05:04;;;;;;;;;;;16.50;99.90;;;;;;2088803;28;763;-51
2021/10/04 00:06:23;;;;;;;;;;;16.50;99.90;;;;;;2088503;28;614;-53
2021/10/04 00:07:42;;;;;;;;;;;16.50;99.90;;;;;;2088230;28;680;-50
2021/10/04 00:09:01;;;;;;;;;;;16.40;99.90;;;;;;2088960;28;632;-52
2021/10/04 00:10:21;;;;;;;;;;;16.50;99.90;;;;;;2090050;28;616;-53
2021/10/04 00:11:40;;;;;;;;;;;16.50;99.90;;;;;;2090324;28;616;-51
2021/10/04 00:12:59;;;;;;;;;;;16.50;99.90;;;;;;2090531;28;680;-51
2021/10/04 00:14:20;;;;;;;;;;;16.50;99.90;;;;;;2090486;28;605;-51
2021/10/04 00:15:39;;;;;;;;;;;16.50;99.90;;;;;;2089822;28;652;-53
2021/10/04 00:16:59;;;;;;;;;;;16.50;99.90;;;;;;2089641;28;633;-54
2021/10/04 00:18:18;;;;;;;;;;;16.50;99.90;;;;;;2090537;28;1454;-51
2021/10/04 00:19:37;;;;;;;;;;;16.50;99.90;;;;;;2090554;28;672;-53
2021/10/04 00:20:56;;;;;;;;;;;16.50;99.90;;;;;;2090614;28;581;-51
2021/10/04 00:22:15;;;;;;;;;;;16.40;99.90;;;;;;2081756;28;1950;-52
2021/10/04 00:23:34;;;;;;;;;;;16.40;99.90;;;;;;2086955;28;621;-51
2021/10/04 00:24:54;;;;;;;;;;;16.50;99.90;;;;;;2086688;28;1405;-52
2021/10/04 00:26:13;;;;;;;;;;;16.50;99.90;;;;;;2073229;28;597;-52
2021/10/04 00:27:32;;;;;;;;;;;16.40;99.90;;;;;;2078859;28;677;-53
2021/10/04 00:28:51;;;;;;;;;;;16.40;99.90;;;;;;2074319;28;878;-51
2021/10/04 00:30:11;;;;;;;;;;;16.40;99.90;;;;;;2087075;28;1071;-51
2021/10/04 00:31:30;;;;;;;;;;;16.40;99.90;;;;;;2089889;28;656;-51
2021/10/04 00:32:49;;;;;;;;;;;16.40;99.90;;;;;;2085377;28;697;-51
2021/10/04 00:34:08;;;;;;;;;;;16.50;99.90;;;;;;2081612;28;624;-52
2021/10/04 00:35:28;;;;;;;;;;;16.40;99.90;;;;;;2082096;28;736;-50
2021/10/04 00:36:47;;;;;;;;;;;16.40;99.90;;;;;;2081575;28;594;-51
2021/10/04 00:38:06;;;;;;;;;;;16.40;99.90;;;;;;2081765;28;1483;-51
2021/10/04 00:39:25;;;;;;;;;;;16.40;99.90;;;;;;2082382;28;650;-51
2021/10/04 00:40:45;;;;;;;;;;;16.40;99.90;;;;;;2081658;28;794;-51
2021/10/04 00:42:04;;;;;;;;;;;16.40;99.90;;;;;;2081860;28;1969;-50
2021/10/04 00:43:23;;;;;;;;;;;16.40;99.90;;;;;;2082132;28;1185;-51
2021/10/04 00:44:42;;;;;;;;;;;16.40;99.90;;;;;;2082459;28;764;-52
2021/10/04 00:46:02;;;;;;;;;;;16.40;99.90;;;;;;2082547;28;760;-51
2021/10/04 00:47:21;;;;;;;;;;;16.40;99.90;;;;;;2082537;28;705;-51
2021/10/04 00:48:40;;;;;;;;;;;16.40;99.90;;;;;;2082179;28;1455;-50
2021/10/04 00:49:59;;;;;;;;;;;16.40;99.90;;;;;;2082517;28;745;-51
2021/10/04 00:51:20;;;;;;;;;;;16.40;99.90;;;;;;2090011;28;756;-51
2021/10/04 00:52:39;;;;;;;;;;;16.40;99.90;;;;;;2081821;28;774;-51
2021/10/04 00:53:59;;;;;;;;;;;16.40;99.90;;;;;;2082120;28;726;-50
2021/10/04 00:55:19;;;;;;;;;;;16.40;99.90;;;;;;2090024;28;788;-50
2021/10/04 00:56:38;;;;;;;;;;;16.40;99.90;;;;;;2084562;28;961;-51
2021/10/04 00:57:57;;;;;;;;;;;16.40;99.90;;;;;;2082898;28;1346;-51
2021/10/04 00:59:17;;;;;;;;;;;16.40;99.90;;;;;;2082464;28;1064;-52
2021/10/04 01:00:36;;;;;;;;;;;16.40;99.90;;;;;;2088844;28;1000;-51
2021/10/04 01:01:56;;;;;;;;;;;16.40;99.90;;;;;;2090431;28;1899;-51
2021/10/04 01:03:16;;;;;;;;;;;16.40;99.90;;;;;;2090509;28;733;-51
2021/10/04 01:04:35;;;;;;;;;;;16.40;99.90;;;;;;2090441;28;763;-51
2021/10/04 01:05:54;;;;;;;;;;;16.40;99.90;;;;;;2090330;28;719;-51
2021/10/04 01:07:13;;;;;;;;;;;16.40;99.90;;;;;;2089509;28;734;-50
2021/10/04 01:08:32;;;;;;;;;;;16.40;99.90;;;;;;2090435;28;1382;-53
2021/10/04 01:09:52;;;;;;;;;;;16.40;99.90;;;;;;2090523;28;712;-51
2021/10/04 01:11:11;;;;;;;;;;;16.40;99.90;;;;;;2089670;28;773;-51
2021/10/04 01:12:30;;;;;;;;;;;16.40;99.90;;;;;;2090224;28;733;-51
2021/10/04 01:13:49;;;;;;;;;;;16.40;99.90;;;;;;2090109;28;772;-50
2021/10/04 01:15:09;;;;;;;;;;;16.30;99.90;;;;;;2090277;28;815;-51
2021/10/04 01:16:28;;;;;;;;;;;16.30;99.90;;;;;;2089597;28;946;-51
2021/10/04 01:17:47;;;;;;;;;;;16.30;99.90;;;;;;2089613;28;770;-51
2021/10/04 01:19:06;;;;;;;;;;;16.30;99.90;;;;;;2090153;28;751;-52
2021/10/04 01:20:26;;;;;;;;;;;16.30;99.90;;;;;;2088948;28;747;-51
2021/10/04 01:21:45;;;;;;;;;;;16.40;99.90;;;;;;2076352;28;1997;-51
2021/10/04 01:23:05;;;;;;;;;;;16.30;99.90;;;;;;2076103;28;867;-50
2021/10/04 01:24:24;;;;;;;;;;;16.30;99.90;;;;;;2081453;28;1064;-50
2021/10/04 01:25:43;;;;;;;;;;;16.30;99.90;;;;;;2076755;28;713;-51
2021/10/04 01:27:03;;;;;;;;;;;16.30;99.90;;;;;;2074104;28;1243;-51
2021/10/04 01:28:22;;;;;;;;;;;16.30;99.90;;;;;;2086732;28;1424;-51
2021/10/04 01:29:41;;;;;;;;;;;16.30;99.90;;;;;;2082978;28;1054;-52
2021/10/04 01:31:00;;;;;;;;;;;16.30;99.90;;;;;;2089876;28;731;-51
2021/10/04 01:32:20;;;;;;;;;;;16.30;99.90;;;;;;2090129;28;806;-51
2021/10/04 01:33:39;;;;;;;;;;;16.30;99.90;;;;;;2089745;28;1025;-51
2021/10/04 01:34:58;;;;;;;;;;;16.30;99.90;;;;;;2090144;28;766;-51
2021/10/04 01:36:20;;;;;;;;;;;16.30;99.90;;;;;;2089612;28;729;-51
2021/10/04 01:37:39;;;;;;;;;;;16.30;99.90;;;;;;2089609;28;785;-51
2021/10/04 01:38:58;;;;;;;;;;;16.30;99.90;;;;;;2086612;28;729;-51
2021/10/04 01:40:17;;;;;;;;;;;16.30;99.90;;;;;;2090046;28;724;-52
2021/10/04 01:41:36;;;;;;;;;;;16.30;99.90;;;;;;2090089;28;1975;-52
2021/10/04 01:42:56;;;;;;;;;;;16.30;99.90;;;;;;2090063;28;738;-52
2021/10/04 01:44:16;;;;;;;;;;;16.30;99.90;;;;;;2089737;28;705;-51
2021/10/04 01:45:35;;;;;;;;;;;16.30;99.90;;;;;;2089405;28;718;-51
2021/10/04 01:46:54;;;;;;;;;;;16.30;99.90;;;;;;2089112;28;703;-51
2021/10/04 01:48:14;;;;;;;;;;;16.30;99.90;;;;;;2090212;28;1313;-51
2021/10/04 01:49:33;;;;;;;;;;;16.30;99.90;;;;;;2090186;28;702;-50
2021/10/04 01:50:52;;;;;;;;;;;16.30;99.90;;;;;;2090180;28;719;-50
2021/10/04 01:52:12;;;;;;;;;;;16.30;99.90;;;;;;2090068;28;690;-51
2021/10/04 01:53:31;;;;;;;;;;;16.30;99.90;;;;;;2089982;28;729;-51
2021/10/04 01:54:50;;;;;;;;;;;16.30;99.90;;;;;;2089991;28;778;-50
2021/10/04 01:56:09;;;;;;;;;;;16.30;99.90;;;;;;2088836;28;724;-51
2021/10/04 01:57:28;;;;;;;;;;;16.30;99.90;;;;;;2085327;28;1050;-51
2021/10/04 01:58:47;;;;;;;;;;;16.30;99.90;;;;;;2089768;28;1450;-51
2021/10/04 02:00:08;;;;;;;;;;;16.30;99.90;;;;;;2084640;28;948;-51
2021/10/04 02:01:33;;;;;;;;;;;16.30;99.90;;;;;;2089901;28;1977;-51
2021/10/04 02:02:53;;;;;;;;;;;16.30;99.90;;;;;;2085910;28;1442;-51
2021/10/04 02:04:12;;;;;;;;;;;16.30;99.90;;;;;;2073468;28;766;-53
2021/10/04 02:05:31;;;;;;;;;;;16.30;99.90;;;;;;2073337;28;699;-51
2021/10/04 02:06:51;;;;;;;;;;;16.30;99.90;;;;;;2071929;28;724;-51
2021/10/04 02:08:10;;;;;;;;;;;16.30;99.90;;;;;;2073558;28;1421;-50
2021/10/04 02:09:29;;;;;;;;;;;16.30;99.90;;;;;;2072761;28;735;-53
2021/10/04 02:10:48;;;;;;;;;;;16.30;99.90;;;;;;2073134;28;734;-50
2021/10/04 02:12:08;;;;;;;;;;;16.30;99.90;;;;;;2072957;28;734;-51
2021/10/04 02:13:27;;;;;;;;;;;16.30;99.90;;;;;;2073261;28;725;-51
2021/10/04 02:14:46;;;;;;;;;;;16.30;99.90;;;;;;2073270;28;724;-51
2021/10/04 02:16:05;;;;;;;;;;;16.30;99.90;;;;;;2072768;28;908;-51
2021/10/04 02:17:26;;;;;;;;;;;16.30;99.90;;;;;;2073085;28;721;-52
2021/10/04 02:18:45;;;;;;;;;;;16.30;99.90;;;;;;2073331;28;1451;-51
2021/10/04 02:20:04;;;;;;;;;;;16.30;99.90;;;;;;2072744;28;716;-53
2021/10/04 02:21:23;;;;;;;;;;;16.20;99.90;;;;;;2069646;28;1903;-53
2021/10/04 02:22:43;;;;;;;;;;;16.20;99.90;;;;;;2073472;28;975;-51
2021/10/04 02:24:02;;;;;;;;;;;16.30;99.90;;;;;;2073033;28;967;-53
2021/10/04 02:25:21;;;;;;;;;;;16.20;99.90;;;;;;2078453;28;1297;-52
2021/10/04 02:26:40;;;;;;;;;;;16.30;99.90;;;;;;2073440;28;1335;-52
2021/10/04 02:28:00;;;;;;;;;;;16.30;99.90;;;;;;2071904;28;1403;-51
2021/10/04 02:29:19;;;;;;;;;;;16.20;99.90;;;;;;2075079;28;1582;-54
2021/10/04 02:30:38;;;;;;;;;;;16.20;99.90;;;;;;2076205;28;1439;-52
2021/10/04 02:31:57;;;;;;;;;;;16.20;99.90;;;;;;2074027;28;1460;-52
2021/10/04 02:33:17;;;;;;;;;;;16.20;99.90;;;;;;2075797;28;1212;-52
2021/10/04 02:34:36;;;;;;;;;;;16.20;99.90;;;;;;2076682;28;1393;-51
2021/10/04 02:35:55;;;;;;;;;;;16.20;99.90;;;;;;2079521;28;1234;-53
2021/10/04 02:37:15;;;;;;;;;;;16.20;99.90;;;;;;2074610;28;1278;-50
2021/10/04 02:38:34;;;;;;;;;;;16.20;99.90;;;;;;2077811;28;1501;-55
2021/10/04 02:39:53;;;;;;;;;;;16.20;99.90;;;;;;2076465;28;1108;-53
2021/10/04 02:41:12;;;;;;;;;;;16.20;99.90;;;;;;2077105;28;1298;-51
2021/10/04 02:42:32;;;;;;;;;;;16.20;99.90;;;;;;2079731;28;1027;-51
2021/10/04 02:43:50;;;;;;;;;;;16.20;99.90;;;;;;2080145;28;1129;-55
2021/10/04 02:45:10;;;;;;;;;;;16.20;99.90;;;;;;2077176;28;1540;-52
2021/10/04 02:46:30;;;;;;;;;;;16.20;99.90;;;;;;2074223;28;1038;-52
2021/10/04 02:47:50;;;;;;;;;;;16.20;99.90;;;;;;2076850;28;1842;-52
2021/10/04 02:49:09;;;;;;;;;;;16.20;99.90;;;;;;2073528;28;1256;-52
2021/10/04 02:50:29;;;;;;;;;;;16.20;99.90;;;;;;2074298;28;1294;-51
2021/10/04 02:51:48;;;;;;;;;;;16.20;99.90;;;;;;2080788;28;1119;-51
2021/10/04 02:53:07;;;;;;;;;;;16.20;99.90;;;;;;2077010;28;1099;-52
2021/10/04 02:54:27;;;;;;;;;;;16.20;99.90;;;;;;2080901;28;1093;-53
2021/10/04 02:55:46;;;;;;;;;;;16.20;99.90;;;;;;2076992;28;1147;-53
2021/10/04 02:57:05;;;;;;;;;;;16.20;99.90;;;;;;2092215;28;1107;-52
2021/10/04 02:58:24;;;;;;;;;;;16.20;99.90;;;;;;2080322;28;1451;-51
2021/10/04 02:59:43;;;;;;;;;;;16.20;99.90;;;;;;2079369;28;1339;-52
2021/10/04 03:01:03;;;;;;;;;;;16.20;99.90;;;;;;2077120;28;1265;-52
2021/10/04 03:02:23;;;;;;;;;;;16.20;99.90;;;;;;2073315;28;1915;-50
2021/10/04 03:03:42;;;;;;;;;;;16.20;99.90;;;;;;2078906;28;1393;-49
2021/10/04 03:05:01;;;;;;;;;;;16.20;99.90;;;;;;2076792;28;1100;-51
2021/10/04 03:06:20;;;;;;;;;;;16.20;99.90;;;;;;2078863;28;1115;-51
2021/10/04 03:07:40;;;;;;;;;;;16.20;99.90;;;;;;2092486;28;1062;-51
2021/10/04 03:08:59;;;;;;;;;;;16.20;99.90;;;;;;2080083;28;1254;-52
2021/10/04 03:10:18;;;;;;;;;;;16.20;99.90;;;;;;2079104;28;1310;-51
2021/10/04 03:11:37;;;;;;;;;;;16.20;99.90;;;;;;2077252;28;1333;-50
2021/10/04 03:12:57;;;;;;;;;;;16.20;99.90;;;;;;2077725;28;1368;-50
2021/10/04 03:14:16;;;;;;;;;;;16.20;99.90;;;;;;2078363;28;1369;-51
2021/10/04 03:15:35;;;;;;;;;;;16.20;99.90;;;;;;2076699;28;1198;-52
2021/10/04 03:16:54;;;;;;;;;;;16.20;99.90;;;;;;2076404;28;1154;-51
2021/10/04 03:18:13;;;;;;;;;;;16.20;99.90;;;;;;2077249;28;1486;-53
2021/10/04 03:19:32;;;;;;;;;;;16.20;99.90;;;;;;2076742;28;1238;-51
2021/10/04 03:20:52;;;;;;;;;;;16.20;99.90;;;;;;2074319;28;1155;-51
2021/10/04 03:22:11;;;;;;;;;;;16.20;99.90;;;;;;2077662;28;1907;-51
2021/10/04 03:23:30;;;;;;;;;;;16.20;99.90;;;;;;2074888;28;1179;-52
2021/10/04 03:24:50;;;;;;;;;;;16.20;99.90;;;;;;2073808;28;1390;-51
2021/10/04 03:26:09;;;;;;;;;;;16.20;99.90;;;;;;2072839;28;1463;-49
2021/10/04 03:27:28;;;;;;;;;;;16.20;99.90;;;;;;2077451;28;1218;-51
2021/10/04 03:28:48;;;;;;;;;;;16.20;99.90;;;;;;2075925;28;1455;-51
2021/10/04 03:30:07;;;;;;;;;;;16.20;99.90;;;;;;2080320;28;1229;-51
2021/10/04 03:31:26;;;;;;;;;;;16.20;99.90;;;;;;2076528;28;1241;-51
2021/10/04 03:32:46;;;;;;;;;;;16.20;99.90;;;;;;2080187;28;1107;-51
2021/10/04 03:34:05;;;;;;;;;;;16.20;99.90;;;;;;2079987;28;1188;-51
2021/10/04 03:35:24;;;;;;;;;;;16.20;99.90;;;;;;2080309;28;951;-50
2021/10/04 03:36:44;;;;;;;;;;;16.20;99.90;;;;;;2079480;28;1108;-51
2021/10/04 03:38:03;;;;;;;;;;;16.20;99.90;;;;;;2076965;28;1435;-51
2021/10/04 03:39:22;;;;;;;;;;;16.20;99.90;;;;;;2080690;28;1140;-52
2021/10/04 03:40:41;;;;;;;;;;;16.20;99.90;;;;;;2076777;28;1139;-51
2021/10/04 03:42:01;;;;;;;;;;;16.20;99.90;;;;;;2077479;28;2013;-52
2021/10/04 03:43:20;;;;;;;;;;;16.20;99.90;;;;;;2078614;28;2073;-52
2021/10/04 03:44:39;;;;;;;;;;;16.20;99.90;;;;;;2080366;28;1291;-51
2021/10/04 03:45:59;;;;;;;;;;;16.20;99.90;;;;;;2081541;28;1586;-52
2021/10/04 03:47:18;;;;;;;;;;;16.20;99.90;;;;;;2086140;28;965;-51
2021/10/04 03:48:37;;;;;;;;;;;16.20;99.90;;;;;;2084186;28;1439;-51
2021/10/04 03:49:56;;;;;;;;;;;16.20;99.90;;;;;;2074046;28;732;-50
2021/10/04 03:51:16;;;;;;;;;;;16.20;99.90;;;;;;2074284;28;734;-50
2021/10/04 03:52:35;;;;;;;;;;;16.20;99.90;;;;;;2074660;28;774;-51
2021/10/04 03:53:54;;;;;;;;;;;16.20;99.90;;;;;;2081988;28;749;-52
2021/10/04 03:55:14;;;;;;;;;;;16.20;99.90;;;;;;2077984;28;742;-50
2021/10/04 03:56:33;;;;;;;;;;;16.20;99.90;;;;;;2074433;28;739;-51
2021/10/04 03:57:52;;;;;;;;;;;16.20;99.90;;;;;;2087029;28;1498;-51
2021/10/04 03:59:11;;;;;;;;;;;16.10;99.90;;;;;;2090539;28;999;-51
2021/10/04 04:00:30;;;;;;;;;;;16.10;99.90;;;;;;2087923;28;992;-51
2021/10/04 04:01:50;;;;;;;;;;;16.10;99.90;;;;;;2090357;28;1968;-51
2021/10/04 04:03:09;;;;;;;;;;;16.10;99.90;;;;;;2091156;28;700;-51
2021/10/04 04:04:28;;;;;;;;;;;16.10;99.90;;;;;;2090273;28;755;-51
2021/10/04 04:05:47;;;;;;;;;;;16.10;99.90;;;;;;2087200;28;750;-51
2021/10/04 04:07:07;;;;;;;;;;;16.10;99.90;;;;;;2090594;28;737;-51
2021/10/04 04:08:26;;;;;;;;;;;16.10;99.90;;;;;;2090909;28;1463;-51
2021/10/04 04:09:45;;;;;;;;;;;16.10;99.90;;;;;;2090382;28;735;-51
2021/10/04 04:11:04;;;;;;;;;;;16.10;99.90;;;;;;2090616;28;741;-51
2021/10/04 04:12:23;;;;;;;;;;;16.10;99.90;;;;;;2090853;28;808;-51
2021/10/04 04:13:42;;;;;;;;;;;16.10;99.90;;;;;;2082062;28;748;-51
2021/10/04 04:15:02;;;;;;;;;;;16.10;99.90;;;;;;2086985;28;785;-51
2021/10/04 04:16:21;;;;;;;;;;;16.10;99.90;;;;;;2090210;28;810;-51
2021/10/04 04:17:41;;;;;;;;;;;16.10;99.90;;;;;;2090100;28;747;-51
2021/10/04 04:19:00;;;;;;;;;;;16.10;99.90;;;;;;2090486;28;734;-51
2021/10/04 04:20:19;;;;;;;;;;;16.10;99.90;;;;;;2090169;28;750;-50
2021/10/04 04:21:40;;;;;;;;;;;16.10;99.90;;;;;;2087053;28;1910;-51
2021/10/04 04:22:59;;;;;;;;;;;16.10;99.90;;;;;;2090767;28;708;-51
2021/10/04 04:24:18;;;;;;;;;;;16.10;99.90;;;;;;2090822;28;780;-52
2021/10/04 04:25:37;;;;;;;;;;;16.10;99.90;;;;;;2090851;28;776;-49
2021/10/04 04:26:56;;;;;;;;;;;16.10;99.90;;;;;;2090216;28;767;-52
2021/10/04 04:28:15;;;;;;;;;;;16.10;99.90;;;;;;2082073;28;1357;-51
2021/10/04 04:29:36;;;;;;;;;;;16.10;99.90;;;;;;2083568;28;1043;-50
2021/10/04 04:30:55;;;;;;;;;;;16.10;99.90;;;;;;2090523;28;744;-51
2021/10/04 04:32:14;;;;;;;;;;;16.10;99.90;;;;;;2089049;28;690;-51
2021/10/04 04:33:33;;;;;;;;;;;16.10;99.90;;;;;;2076925;28;1610;-53
2021/10/04 04:34:52;;;;;;;;;;;16.10;99.90;;;;;;2074150;28;1041;-51
2021/10/04 04:36:11;;;;;;;;;;;16.10;99.90;;;;;;2073770;28;726;-51
2021/10/04 04:37:31;;;;;;;;;;;16.10;99.90;;;;;;2074224;28;714;-51
2021/10/04 04:38:51;;;;;;;;;;;16.10;99.90;;;;;;2073705;28;718;-50
2021/10/04 04:40:11;;;;;;;;;;;16.10;99.90;;;;;;2070554;28;713;-51
2021/10/04 04:41:30;;;;;;;;;;;16.10;99.90;;;;;;2078092;28;1953;-51
2021/10/04 04:42:49;;;;;;;;;;;16.10;99.90;;;;;;2082236;28;767;-50
2021/10/04 04:44:08;;;;;;;;;;;16.10;99.90;;;;;;2082464;28;805;-52
2021/10/04 04:45:27;;;;;;;;;;;16.10;99.90;;;;;;2082440;28;686;-51
2021/10/04 04:46:47;;;;;;;;;;;16.10;99.90;;;;;;2081840;28;743;-51
2021/10/04 04:48:06;;;;;;;;;;;16.10;99.90;;;;;;2082408;28;1374;-51
2021/10/04 04:49:28;;;;;;;;;;;16.10;99.90;;;;;;2082404;28;750;-52
2021/10/04 04:50:47;;;;;;;;;;;16.10;99.90;;;;;;2082260;28;712;-51
2021/10/04 04:52:07;;;;;;;;;;;16.10;99.90;;;;;;2082290;28;717;-52
2021/10/04 04:53:26;;;;;;;;;;;16.10;99.90;;;;;;2082210;28;729;-50
2021/10/04 04:54:45;;;;;;;;;;;16.10;99.90;;;;;;2081510;28;743;-51
2021/10/04 04:56:04;;;;;;;;;;;16.10;99.90;;;;;;2078387;28;691;-51
2021/10/04 04:57:24;;;;;;;;;;;16.10;99.90;;;;;;2078484;28;1032;-51
2021/10/04 04:58:43;;;;;;;;;;;16.10;99.90;;;;;;2086157;28;1423;-51
2021/10/04 05:00:06;;;;;;;;;;;16.10;99.90;;;;;;2077731;28;894;-51
2021/10/04 05:01:26;;;;;;;;;;;16.10;99.90;;;;;;2089860;28;771;-52
2021/10/04 05:02:45;;;;;;;;;;;16.10;99.90;;;;;;2090040;28;710;-51
2021/10/04 05:04:04;;;;;;;;;;;16.00;99.90;;;;;;2090110;28;745;-51
2021/10/04 05:05:24;;;;;;;;;;;16.10;99.90;;;;;;2090239;28;744;-50
2021/10/04 05:06:43;;;;;;;;;;;16.10;99.90;;;;;;2090035;28;705;-51
2021/10/04 05:08:02;;;;;;;;;;;16.10;99.90;;;;;;2090295;28;1430;-50
2021/10/04 05:09:22;;;;;;;;;;;16.10;99.90;;;;;;2089890;28;774;-51
2021/10/04 05:10:41;;;;;;;;;;;16.10;99.90;;;;;;2090352;28;701;-50
2021/10/04 05:12:00;;;;;;;;;;;16.10;99.90;;;;;;2089712;28;779;-51
2021/10/04 05:13:19;;;;;;;;;;;16.10;99.90;;;;;;2090331;28;722;-50
2021/10/04 05:14:38;;;;;;;;;;;16.10;99.90;;;;;;2090409;28;721;-51
2021/10/04 05:15:58;;;;;;;;;;;16.00;99.90;;;;;;2089532;28;800;-50
2021/10/04 05:17:17;;;;;;;;;;;16.00;99.90;;;;;;2090200;28;1013;-51
2021/10/04 05:18:36;;;;;;;;;;;16.00;99.90;;;;;;2090493;28;1275;-51
2021/10/04 05:19:55;;;;;;;;;;;16.10;99.90;;;;;;2090535;28;749;-52
2021/10/04 05:21:15;;;;;;;;;;;16.10;99.90;;;;;;2090301;28;763;-50
2021/10/04 05:22:35;;;;;;;;;;;16.00;99.90;;;;;;2089686;28;736;-51
2021/10/04 05:23:54;;;;;;;;;;;16.00;99.90;;;;;;2086596;28;816;-51
2021/10/04 05:25:13;;;;;;;;;;;16.10;99.90;;;;;;2090258;28;720;-53
2021/10/04 05:26:32;;;;;;;;;;;16.00;99.90;;;;;;2081270;28;1205;-51
2021/10/04 05:27:52;;;;;;;;;;;16.00;99.90;;;;;;2082082;28;1515;-51
2021/10/04 05:29:11;;;;;;;;;;;16.00;99.90;;;;;;2086738;28;1183;-51
2021/10/04 05:30:30;;;;;;;;;;;16.10;99.90;;;;;;2090162;28;1027;-50
2021/10/04 05:31:49;;;;;;;;;;;16.00;99.90;;;;;;2090228;28;802;-51
2021/10/04 05:33:09;;;;;;;;;;;16.00;99.90;;;;;;2089686;28;754;-51
2021/10/04 05:34:28;;;;;;;;;;;16.00;99.90;;;;;;2089889;28;760;-51
2021/10/04 05:35:47;;;;;;;;;;;16.00;99.90;;;;;;2089587;28;735;-51
2021/10/04 05:37:06;;;;;;;;;;;16.00;99.90;;;;;;2089956;28;727;-52
2021/10/04 05:38:26;;;;;;;;;;;16.00;99.90;;;;;;2089185;28;1440;-51
2021/10/04 05:39:45;;;;;;;;;;;16.00;99.90;;;;;;2090072;28;700;-51
2021/10/04 05:41:04;;;;;;;;;;;16.00;99.90;;;;;;2090172;28;718;-54
2021/10/04 05:42:24;;;;;;;;;;;16.00;99.90;;;;;;2089960;28;1981;-50
2021/10/04 05:43:43;;;;;;;;;;;16.00;99.90;;;;;;2089441;28;1015;-50
2021/10/04 05:45:03;;;;;;;;;;;16.00;99.90;;;;;;2089611;28;759;-50
2021/10/04 05:46:22;;;;;;;;;;;16.00;99.90;;;;;;2081030;28;758;-52
2021/10/04 05:47:41;;;;;;;;;;;16.00;99.90;;;;;;2086875;28;732;-49
2021/10/04 05:49:00;;;;;;;;;;;16.00;99.90;;;;;;2089429;28;816;-51
2021/10/04 05:50:20;;;;;;;;;;;16.00;99.90;;;;;;2090036;28;737;-52
2021/10/04 05:51:39;;;;;;;;;;;16.00;99.90;;;;;;2089580;28;774;-51
2021/10/04 05:52:58;;;;;;;;;;;16.00;99.90;;;;;;2089986;28;833;-50
2021/10/04 05:54:17;;;;;;;;;;;16.00;99.90;;;;;;2090353;28;713;-51
2021/10/04 05:55:37;;;;;;;;;;;16.00;99.90;;;;;;2089830;28;745;-51
2021/10/04 05:56:56;;;;;;;;;;;16.00;99.90;;;;;;2089564;28;736;-51
2021/10/04 05:58:15;;;;;;;;;;;16.00;99.90;;;;;;2081305;28;1393;-51
2021/10/04 05:59:35;;;;;;;;;;;16.00;99.90;;;;;;2082729;28;1125;-52
2021/10/04 06:00:54;;;;;;;;;;;16.00;99.90;;;;;;2073471;28;739;-51
2021/10/04 06:02:14;;;;;;;;;;;16.00;99.90;;;;;;2073577;28;1988;-51
2021/10/04 06:03:33;;;;;;;;;;;16.00;99.90;;;;;;2073546;28;780;-51
2021/10/04 06:04:52;;;;;;;;;;;16.00;99.90;;;;;;2073067;28;717;-50
2021/10/04 06:06:11;;;;;;;;;;;16.00;99.90;;;;;;2072792;28;752;-52
2021/10/04 06:07:31;;;;;;;;;;;16.00;99.90;;;;;;2073038;28;705;-52
2021/10/04 06:08:50;;;;;;;;;;;16.00;99.90;;;;;;2073746;28;1394;-51
2021/10/04 06:10:11;;;;;;;;;;;16.00;99.90;;;;;;2073557;28;707;-51
2021/10/04 06:11:30;;;;;;;;;;;16.00;99.90;;;;;;2073422;28;715;-52
2021/10/04 06:12:50;;;;;;;;;;;16.00;99.90;;;;;;2073703;28;697;-51
2021/10/04 06:14:10;;;;;;;;;;;16.00;99.90;;;;;;2073481;28;762;-51
2021/10/04 06:15:29;;;;;;;;;;;16.00;99.90;;;;;;2073252;28;704;-51
2021/10/04 06:16:48;;;;;;;;;;;16.00;99.90;;;;;;2072326;28;755;-51
2021/10/04 06:18:08;;;;;;;;;;;16.00;99.90;;;;;;2073191;28;1362;-51
2021/10/04 06:19:27;;;;;;;;;;;16.00;99.90;;;;;;2064873;28;726;-53
2021/10/04 06:20:46;;;;;;;;;;;16.00;99.90;;;;;;2070244;28;716;-51
2021/10/04 06:22:05;;;;;;;;;;;16.00;99.90;;;;;;2072631;28;1973;-51
2021/10/04 06:23:25;;;;;;;;;;;16.00;99.90;;;;;;2061680;28;717;-51
2021/10/04 06:24:44;;;;;;;;;;;16.00;99.90;;;;;;2069971;28;745;-51
2021/10/04 06:26:03;;;;;;;;;;;16.00;99.90;;;;;;2073412;28;723;-51
2021/10/04 06:27:23;;;;;;;;;;;16.00;99.90;;;;;;2076514;28;740;-51
2021/10/04 06:28:42;;;;;;;;;;;16.00;99.90;;;;;;2085106;28;1535;-50
2021/10/04 06:30:02;;;;;;;;;;;16.00;99.90;;;;;;2076987;28;936;-51
2021/10/04 06:31:21;;;;;;;;;;;16.00;99.90;;;;;;2090044;28;719;-51
2021/10/04 06:32:41;;;;;;;;;;;16.00;99.90;;;;;;2088381;28;727;-51
2021/10/04 06:34:00;;;;;;;;;;;16.00;99.90;;;;;;2089024;28;863;-51
2021/10/04 06:35:19;;;;;;;;;;;16.00;99.90;;;;;;2089735;28;746;-50
2021/10/04 06:36:38;;;;;;;;;;;16.00;99.90;;;;;;2089164;28;943;-51
2021/10/04 06:37:57;;;;;;;;;;;16.00;99.90;;;;;;2086146;28;1415;-53
2021/10/04 06:39:16;;;;;;;;;;;16.00;99.90;;;;;;2061565;28;709;-51
2021/10/04 06:40:35;;;;;;;;;;;16.00;99.90;;;;;;2069963;28;940;-51
2021/10/04 06:41:54;;;;;;;;;;;16.00;99.90;;;;;;2072707;28;1902;-52
2021/10/04 06:43:20;;;;;;;;;;;16.00;99.90;;;;;;2072900;28;780;-51
2021/10/04 06:44:39;;;;;;;;;;;16.00;99.90;;;;;;2072883;28;714;-50
2021/10/04 06:45:58;;;;;;;;;;;16.00;99.90;;;;;;2080504;28;1231;-51
2021/10/04 06:47:17;;;;;;;;;;;16.00;99.90;;;;;;2080717;28;754;-51
2021/10/04 06:48:37;;;;;;;;;;;16.00;99.90;;;;;;2077556;28;1317;-53
2021/10/04 06:49:56;;;;;;;;;;;16.00;99.90;;;;;;2081358;28;709;-55
2021/10/04 06:51:15;;;;;;;;;;;16.00;99.90;;;;;;2081431;28;800;-53
2021/10/04 06:52:34;;;;;;;;;;;16.00;99.90;;;;;;2081432;28;731;-51
2021/10/04 06:53:53;;;;;;;;;;;16.00;99.90;;;;;;2080839;28;776;-51
2021/10/04 06:55:13;;;;;;;;;;;16.00;99.90;;;;;;2077708;28;802;-54
2021/10/04 06:56:32;;;;;;;;;;;16.00;99.90;;;;;;2077044;28;761;-49
2021/10/04 06:57:51;;;;;;;;;;;16.00;99.90;;;;;;2081620;28;1027;-51
2021/10/04 06:59:11;;;;;;;;;;;16.00;99.90;;;;;;2086393;28;1128;-52
2021/10/04 07:00:31;;;;;;;;;;;16.00;99.90;;;;;;2080479;28;1028;-53
2021/10/04 07:01:50;;;;;;;;;;;16.00;99.90;;;;;;2082419;28;1961;-51
2021/10/04 07:03:10;;;;;;;;;;;16.00;99.90;;;;;;2089096;28;768;-53
2021/10/04 07:04:29;;;;;;;;;;;16.00;99.90;;;;;;2085948;28;754;-53
2021/10/04 07:05:49;;;;;;;;;;;16.00;99.90;;;;;;2089430;28;761;-53
2021/10/04 07:07:09;;;;;;;;;;;16.00;99.90;;;;;;2089099;28;1047;-53
2021/10/04 07:08:28;;;;;;;;;;;16.00;99.90;;;;;;2089575;28;1367;-52
2021/10/04 07:09:47;;;;;;;;;;;16.00;99.90;;;;;;2089471;28;692;-50
2021/10/04 07:11:06;;;;;;;;;;;16.00;99.90;;;;;;2089834;28;750;-51
2021/10/04 07:12:25;;;;;;;;;;;16.00;99.90;;;;;;2088924;28;783;-51
2021/10/04 07:13:45;;;;;;;;;;;16.00;99.90;;;;;;2089244;28;729;-52
2021/10/04 07:15:04;;;;;;;;;;;16.00;99.90;;;;;;2089278;28;729;-51
2021/10/04 07:16:23;;;;;;;;;;;16.00;99.90;;;;;;2088775;28;834;-51
2021/10/04 07:17:43;;;;;;;;;;;16.00;99.90;;;;;;2089494;28;764;-51
2021/10/04 07:19:03;;;;;;;;;;;16.00;99.90;;;;;;2080819;28;808;-51
2021/10/04 07:20:22;;;;;;;;;;;16.00;99.90;;;;;;2086156;28;738;-54
2021/10/04 07:21:41;;;;;;;;;;;16.00;99.90;;;;;;2089606;28;1914;-51
2021/10/04 07:23:02;;;;;;;;;;;16.00;99.90;;;;;;2089763;28;775;-51
2021/10/04 07:24:21;;;;;;;;;;;16.00;99.90;;;;;;2089529;28;884;-51
2021/10/04 07:25:41;;;;;;;;;;;16.00;99.90;;;;;;2089749;28;724;-51
2021/10/04 07:27:00;;;;;;;;;;;16.00;99.90;;;;;;2087671;28;830;-51
2021/10/04 07:28:20;;;;;;;;;;;16.00;99.90;;;;;;2083220;28;1411;-51
2021/10/04 07:29:39;;;;;;;;;;;16.00;99.90;;;;;;2086527;28;1063;-51
2021/10/04 07:30:58;;;;;;;;;;;16.00;99.90;;;;;;2072862;28;1196;-51
2021/10/04 07:32:17;;;;;;;;;;;15.90;99.90;;;;;;2072282;28;727;-51
2021/10/04 07:33:37;;;;;;;;;;;16.00;99.90;;;;;;2073205;28;701;-51
2021/10/04 07:34:56;;;;;;;;;;;16.00;99.90;;;;;;2072472;28;975;-51
2021/10/04 07:36:15;;;;;;;;;;;16.00;99.90;;;;;;2072242;28;746;-51
2021/10/04 07:37:34;;;;;;;;;;;16.00;99.90;;;;;;2073117;28;744;-52
2021/10/04 07:38:54;;;;;;;;;;;16.00;99.90;;;;;;2073061;28;749;-51
2021/10/04 07:40:13;;;;;;;;;;;16.00;99.90;;;;;;2073053;28;819;-51
2021/10/04 07:41:32;;;;;;;;;;;16.00;99.90;;;;;;2073188;28;746;-51
2021/10/04 07:42:51;;;;;;;;;;;16.00;99.90;;;;;;2073036;28;822;-54
2021/10/04 07:44:10;;;;;;;;;;;16.00;99.90;;;;;;2073063;28;713;-52
2021/10/04 07:45:32;;;;;;;;;;;16.00;99.90;;;;;;2072175;28;727;-55
2021/10/04 07:46:53;;;;;;;;;;;16.00;99.90;;;;;;2072161;28;716;-55
2021/10/04 07:48:12;;;;;;;;;;;16.00;99.90;;;;;;2072555;28;1360;-55
2021/10/04 07:49:31;;;;;;;;;;;16.00;99.90;;;;;;2072864;28;969;-53
2021/10/04 07:50:50;;;;;;;;;;;16.00;99.90;;;;;;2072440;28;808;-58
2021/10/04 07:52:09;;;;;;;;;;;16.00;99.90;;;;;;2072830;28;722;-53
2021/10/04 07:53:29;;;;;;;;;;;16.00;99.90;;;;;;2072846;28;701;-58